sensor_id;sensor_type;location;lat;lon;timestamp;P1;durP1;ratioP1;P2;durP2;ratioP2
11955;SDS011;6038;52.276;10.530;2023-06-04T00:01:41;2.30;;;1.80;;
11955;SDS011;6038;52.276;10.530;2023-06-04T00:04:10;3.70;;;1.93;;
11955;SDS011;6038;52.276;10.530;2023-06-04T00:06:36;3.17;;;1.80;;
11955;SDS011;6038;52.276;10.530;2023-06-04T00:09:02;6.37;;;1.73;;
11955;SDS011;6038;52.276;10.530;2023-06-04T00:11:28;2.20;;;1.90;;
11955;SDS011;6038;52.276;10.530;2023-06-04T00:13:54;2.77;;;1.60;;
11955;SDS011;6038;52.276;10.530;2023-06-04T00:16:20;2.47;;;1.83;;
11955;SDS011;6038;52.276;10.530;2023-06-04T00:18:46;2.77;;;1.73;;
11955;SDS011;6038;52.276;10.530;2023-06-04T00:21:12;2.17;;;1.73;;
11955;SDS011;6038;52.276;10.530;2023-06-04T00:23:38;2.80;;;2.00;;
11955;SDS011;6038;52.276;10.530;2023-06-04T00:26:04;2.80;;;1.73;;
11955;SDS011;6038;52.276;10.530;2023-06-04T00:28:30;3.03;;;2.00;;
11955;SDS011;6038;52.276;10.530;2023-06-04T00:30:56;3.50;;;1.90;;
11955;SDS011;6038;52.276;10.530;2023-06-04T00:33:21;3.17;;;2.07;;
11955;SDS011;6038;52.276;10.530;2023-06-04T00:35:47;1.97;;;1.60;;
11955;SDS011;6038;52.276;10.530;2023-06-04T00:38:13;2.23;;;1.77;;
11955;SDS011;6038;52.276;10.530;2023-06-04T00:40:39;2.03;;;1.80;;
11955;SDS011;6038;52.276;10.530;2023-06-04T00:43:06;1.87;;;1.60;;
11955;SDS011;6038;52.276;10.530;2023-06-04T00:45:32;2.40;;;1.83;;
11955;SDS011;6038;52.276;10.530;2023-06-04T00:47:58;3.00;;;1.90;;
11955;SDS011;6038;52.276;10.530;2023-06-04T00:50:24;1.67;;;1.53;;
11955;SDS011;6038;52.276;10.530;2023-06-04T00:52:50;2.33;;;1.63;;
11955;SDS011;6038;52.276;10.530;2023-06-04T00:55:17;2.27;;;1.70;;
11955;SDS011;6038;52.276;10.530;2023-06-04T00:57:43;2.17;;;1.60;;
11955;SDS011;6038;52.276;10.530;2023-06-04T01:00:09;3.00;;;1.67;;
11955;SDS011;6038;52.276;10.530;2023-06-04T01:02:37;1.80;;;1.50;;
11955;SDS011;6038;52.276;10.530;2023-06-04T01:05:11;3.13;;;1.70;;
11955;SDS011;6038;52.276;10.530;2023-06-04T01:07:37;2.40;;;1.53;;
11955;SDS011;6038;52.276;10.530;2023-06-04T01:10:05;2.27;;;1.87;;
11955;SDS011;6038;52.276;10.530;2023-06-04T01:12:31;2.40;;;1.80;;
11955;SDS011;6038;52.276;10.530;2023-06-04T01:14:57;3.30;;;1.90;;
11955;SDS011;6038;52.276;10.530;2023-06-04T01:25:05;2.90;;;2.03;;
11955;SDS011;6038;52.276;10.530;2023-06-04T01:27:31;3.00;;;1.90;;
11955;SDS011;6038;52.276;10.530;2023-06-04T01:30:00;2.90;;;1.90;;
11955;SDS011;6038;52.276;10.530;2023-06-04T01:32:26;2.60;;;1.77;;
11955;SDS011;6038;52.276;10.530;2023-06-04T01:34:52;3.57;;;1.67;;
11955;SDS011;6038;52.276;10.530;2023-06-04T01:37:19;3.10;;;1.90;;
11955;SDS011;6038;52.276;10.530;2023-06-04T01:39:45;2.63;;;1.97;;
11955;SDS011;6038;52.276;10.530;2023-06-04T01:42:11;3.20;;;1.93;;
11955;SDS011;6038;52.276;10.530;2023-06-04T01:44:37;1.70;;;1.57;;
11955;SDS011;6038;52.276;10.530;2023-06-04T01:47:03;2.00;;;1.80;;
11955;SDS011;6038;52.276;10.530;2023-06-04T01:49:29;3.03;;;1.80;;
11955;SDS011;6038;52.276;10.530;2023-06-04T01:51:55;2.30;;;1.80;;
11955;SDS011;6038;52.276;10.530;2023-06-04T01:54:21;2.33;;;1.80;;
11955;SDS011;6038;52.276;10.530;2023-06-04T01:56:47;2.37;;;1.70;;
11955;SDS011;6038;52.276;10.530;2023-06-04T01:59:13;5.13;;;1.93;;
11955;SDS011;6038;52.276;10.530;2023-06-04T02:01:41;2.20;;;1.83;;
11955;SDS011;6038;52.276;10.530;2023-06-04T02:04:07;3.93;;;1.63;;
11955;SDS011;6038;52.276;10.530;2023-06-04T02:06:33;2.03;;;1.43;;
11955;SDS011;6038;52.276;10.530;2023-06-04T02:08:59;1.93;;;1.60;;
11955;SDS011;6038;52.276;10.530;2023-06-04T02:11:26;1.87;;;1.60;;
11955;SDS011;6038;52.276;10.530;2023-06-04T02:13:52;2.30;;;1.70;;
11955;SDS011;6038;52.276;10.530;2023-06-04T02:16:18;3.63;;;1.77;;
11955;SDS011;6038;52.276;10.530;2023-06-04T02:18:44;1.87;;;1.60;;
11955;SDS011;6038;52.276;10.530;2023-06-04T02:21:10;2.20;;;1.60;;
11955;SDS011;6038;52.276;10.530;2023-06-04T02:23:37;2.63;;;1.80;;
11955;SDS011;6038;52.276;10.530;2023-06-04T02:26:03;3.27;;;1.60;;
11955;SDS011;6038;52.276;10.530;2023-06-04T02:28:30;4.53;;;1.70;;
11955;SDS011;6038;52.276;10.530;2023-06-04T02:30:56;1.87;;;1.60;;
11955;SDS011;6038;52.276;10.530;2023-06-04T02:33:22;2.50;;;1.60;;
11955;SDS011;6038;52.276;10.530;2023-06-04T02:35:48;2.47;;;1.70;;
11955;SDS011;6038;52.276;10.530;2023-06-04T02:38:14;4.37;;;1.80;;
11955;SDS011;6038;52.276;10.530;2023-06-04T02:40:41;2.97;;;1.80;;
11955;SDS011;6038;52.276;10.530;2023-06-04T02:43:09;2.77;;;1.87;;
11955;SDS011;6038;52.276;10.530;2023-06-04T02:45:35;3.20;;;1.77;;
11955;SDS011;6038;52.276;10.530;2023-06-04T02:48:01;1.97;;;1.53;;
11955;SDS011;6038;52.276;10.530;2023-06-04T02:50:27;6.37;;;1.67;;
11955;SDS011;6038;52.276;10.530;2023-06-04T02:52:53;2.63;;;1.93;;
11955;SDS011;6038;52.276;10.530;2023-06-04T02:55:19;2.13;;;1.60;;
11955;SDS011;6038;52.276;10.530;2023-06-04T02:57:45;2.10;;;1.50;;
11955;SDS011;6038;52.276;10.530;2023-06-04T03:00:11;3.90;;;1.70;;
11955;SDS011;6038;52.276;10.530;2023-06-04T03:02:41;2.47;;;1.60;;
11955;SDS011;6038;52.276;10.530;2023-06-04T03:05:08;2.77;;;1.80;;
11955;SDS011;6038;52.276;10.530;2023-06-04T03:07:35;1.73;;;1.60;;
11955;SDS011;6038;52.276;10.530;2023-06-04T03:10:01;2.50;;;1.80;;
11955;SDS011;6038;52.276;10.530;2023-06-04T03:12:28;3.20;;;1.80;;
11955;SDS011;6038;52.276;10.530;2023-06-04T03:14:55;2.47;;;1.63;;
11955;SDS011;6038;52.276;10.530;2023-06-04T03:17:21;3.67;;;1.63;;
11955;SDS011;6038;52.276;10.530;2023-06-04T03:19:47;2.00;;;1.60;;
11955;SDS011;6038;52.276;10.530;2023-06-04T03:22:13;2.70;;;1.73;;
11955;SDS011;6038;52.276;10.530;2023-06-04T03:24:40;4.03;;;1.80;;
11955;SDS011;6038;52.276;10.530;2023-06-04T03:27:07;1.77;;;1.27;;
11955;SDS011;6038;52.276;10.530;2023-06-04T03:29:34;3.47;;;1.60;;
11955;SDS011;6038;52.276;10.530;2023-06-04T03:32:00;2.20;;;1.50;;
11955;SDS011;6038;52.276;10.530;2023-06-04T03:34:27;2.27;;;1.50;;
11955;SDS011;6038;52.276;10.530;2023-06-04T03:36:56;3.43;;;1.67;;
11955;SDS011;6038;52.276;10.530;2023-06-04T03:39:22;2.00;;;1.60;;
11955;SDS011;6038;52.276;10.530;2023-06-04T03:41:49;2.40;;;1.50;;
11955;SDS011;6038;52.276;10.530;2023-06-04T03:44:18;1.77;;;1.53;;
11955;SDS011;6038;52.276;10.530;2023-06-04T03:46:44;2.53;;;1.63;;
11955;SDS011;6038;52.276;10.530;2023-06-04T03:49:11;2.57;;;1.63;;
11955;SDS011;6038;52.276;10.530;2023-06-04T03:51:37;2.40;;;1.60;;
11955;SDS011;6038;52.276;10.530;2023-06-04T03:54:03;2.30;;;1.53;;
11955;SDS011;6038;52.276;10.530;2023-06-04T03:56:29;1.80;;;1.57;;
11955;SDS011;6038;52.276;10.530;2023-06-04T03:58:56;1.90;;;1.60;;
11955;SDS011;6038;52.276;10.530;2023-06-04T04:01:22;2.33;;;1.67;;
11955;SDS011;6038;52.276;10.530;2023-06-04T04:03:51;2.90;;;1.67;;
11955;SDS011;6038;52.276;10.530;2023-06-04T04:06:17;3.40;;;1.60;;
11955;SDS011;6038;52.276;10.530;2023-06-04T04:08:43;2.80;;;1.63;;
11955;SDS011;6038;52.276;10.530;2023-06-04T04:11:12;2.33;;;1.70;;
11955;SDS011;6038;52.276;10.530;2023-06-04T04:13:39;2.33;;;1.83;;
11955;SDS011;6038;52.276;10.530;2023-06-04T04:16:05;1.90;;;1.70;;
11955;SDS011;6038;52.276;10.530;2023-06-04T04:18:34;2.30;;;1.70;;
11955;SDS011;6038;52.276;10.530;2023-06-04T04:21:01;1.97;;;1.70;;
11955;SDS011;6038;52.276;10.530;2023-06-04T04:23:27;2.33;;;1.63;;
11955;SDS011;6038;52.276;10.530;2023-06-04T04:25:53;4.87;;;1.97;;
11955;SDS011;6038;52.276;10.530;2023-06-04T04:28:21;1.90;;;1.43;;
11955;SDS011;6038;52.276;10.530;2023-06-04T04:30:47;1.70;;;1.60;;
11955;SDS011;6038;52.276;10.530;2023-06-04T04:33:14;2.23;;;1.50;;
11955;SDS011;6038;52.276;10.530;2023-06-04T04:35:40;1.87;;;1.57;;
11955;SDS011;6038;52.276;10.530;2023-06-04T04:38:10;2.33;;;1.67;;
11955;SDS011;6038;52.276;10.530;2023-06-04T04:40:36;2.27;;;1.40;;
11955;SDS011;6038;52.276;10.530;2023-06-04T04:43:02;2.53;;;1.60;;
11955;SDS011;6038;52.276;10.530;2023-06-04T04:45:28;2.10;;;1.50;;
11955;SDS011;6038;52.276;10.530;2023-06-04T04:47:54;2.80;;;1.43;;
11955;SDS011;6038;52.276;10.530;2023-06-04T04:50:20;3.80;;;1.43;;
11955;SDS011;6038;52.276;10.530;2023-06-04T04:52:46;1.57;;;1.30;;
11955;SDS011;6038;52.276;10.530;2023-06-04T04:55:12;1.97;;;1.23;;
11955;SDS011;6038;52.276;10.530;2023-06-04T04:57:38;2.07;;;1.37;;
11955;SDS011;6038;52.276;10.530;2023-06-04T05:00:05;2.37;;;1.37;;
11955;SDS011;6038;52.276;10.530;2023-06-04T05:02:34;1.67;;;1.30;;
11955;SDS011;6038;52.276;10.530;2023-06-04T05:05:01;1.63;;;1.20;;
11955;SDS011;6038;52.276;10.530;2023-06-04T05:07:27;2.53;;;1.37;;
11955;SDS011;6038;52.276;10.530;2023-06-04T05:09:52;3.37;;;1.20;;
11955;SDS011;6038;52.276;10.530;2023-06-04T05:12:18;1.37;;;1.10;;
11955;SDS011;6038;52.276;10.530;2023-06-04T05:14:45;2.27;;;1.20;;
11955;SDS011;6038;52.276;10.530;2023-06-04T05:17:11;1.60;;;1.30;;
11955;SDS011;6038;52.276;10.530;2023-06-04T05:19:37;2.97;;;1.57;;
11955;SDS011;6038;52.276;10.530;2023-06-04T05:22:04;1.43;;;1.20;;
11955;SDS011;6038;52.276;10.530;2023-06-04T05:24:30;1.70;;;1.40;;
11955;SDS011;6038;52.276;10.530;2023-06-04T05:26:57;2.50;;;1.43;;
11955;SDS011;6038;52.276;10.530;2023-06-04T05:29:23;3.43;;;1.57;;
11955;SDS011;6038;52.276;10.530;2023-06-04T05:31:50;3.47;;;1.40;;
11955;SDS011;6038;52.276;10.530;2023-06-04T05:34:16;3.47;;;1.40;;
11955;SDS011;6038;52.276;10.530;2023-06-04T05:36:43;2.10;;;1.57;;
11955;SDS011;6038;52.276;10.530;2023-06-04T05:39:09;4.23;;;1.60;;
11955;SDS011;6038;52.276;10.530;2023-06-04T05:41:35;3.23;;;1.90;;
11955;SDS011;6038;52.276;10.530;2023-06-04T05:44:02;2.33;;;1.70;;
11955;SDS011;6038;52.276;10.530;2023-06-04T05:46:28;2.20;;;1.57;;
11955;SDS011;6038;52.276;10.530;2023-06-04T05:48:54;2.63;;;1.80;;
11955;SDS011;6038;52.276;10.530;2023-06-04T05:51:20;2.03;;;1.53;;
11955;SDS011;6038;52.276;10.530;2023-06-04T05:53:46;2.87;;;1.63;;
11955;SDS011;6038;52.276;10.530;2023-06-04T05:56:12;3.00;;;1.53;;
11955;SDS011;6038;52.276;10.530;2023-06-04T05:58:39;2.40;;;1.60;;
11955;SDS011;6038;52.276;10.530;2023-06-04T06:01:05;1.70;;;1.40;;
11955;SDS011;6038;52.276;10.530;2023-06-04T06:03:31;2.57;;;1.67;;
11955;SDS011;6038;52.276;10.530;2023-06-04T06:05:57;1.77;;;1.50;;
11955;SDS011;6038;52.276;10.530;2023-06-04T06:08:24;1.77;;;1.40;;
11955;SDS011;6038;52.276;10.530;2023-06-04T06:10:53;2.93;;;1.50;;
11955;SDS011;6038;52.276;10.530;2023-06-04T06:13:19;4.63;;;1.60;;
11955;SDS011;6038;52.276;10.530;2023-06-04T06:15:46;2.27;;;1.40;;
11955;SDS011;6038;52.276;10.530;2023-06-04T06:18:15;2.03;;;1.40;;
11955;SDS011;6038;52.276;10.530;2023-06-04T06:20:41;3.67;;;1.50;;
11955;SDS011;6038;52.276;10.530;2023-06-04T06:23:07;2.10;;;1.60;;
11955;SDS011;6038;52.276;10.530;2023-06-04T06:25:33;3.87;;;1.50;;
11955;SDS011;6038;52.276;10.530;2023-06-04T06:27:59;2.20;;;1.40;;
11955;SDS011;6038;52.276;10.530;2023-06-04T06:30:25;2.40;;;1.40;;
11955;SDS011;6038;52.276;10.530;2023-06-04T06:32:51;4.13;;;1.53;;
11955;SDS011;6038;52.276;10.530;2023-06-04T06:35:18;2.43;;;1.60;;
11955;SDS011;6038;52.276;10.530;2023-06-04T06:37:44;1.83;;;1.53;;
11955;SDS011;6038;52.276;10.530;2023-06-04T06:40:10;3.17;;;1.40;;
11955;SDS011;6038;52.276;10.530;2023-06-04T06:42:36;1.50;;;1.40;;
11955;SDS011;6038;52.276;10.530;2023-06-04T06:45:02;2.93;;;1.70;;
11955;SDS011;6038;52.276;10.530;2023-06-04T06:47:28;2.43;;;1.60;;
11955;SDS011;6038;52.276;10.530;2023-06-04T06:49:55;2.10;;;1.40;;
11955;SDS011;6038;52.276;10.530;2023-06-04T06:52:21;2.57;;;1.40;;
11955;SDS011;6038;52.276;10.530;2023-06-04T06:54:47;2.20;;;1.60;;
11955;SDS011;6038;52.276;10.530;2023-06-04T06:57:13;2.23;;;1.87;;
11955;SDS011;6038;52.276;10.530;2023-06-04T06:59:40;2.87;;;1.90;;
11955;SDS011;6038;52.276;10.530;2023-06-04T07:02:06;2.57;;;1.57;;
11955;SDS011;6038;52.276;10.530;2023-06-04T07:04:32;2.07;;;1.63;;
11955;SDS011;6038;52.276;10.530;2023-06-04T07:06:58;2.20;;;1.53;;
11955;SDS011;6038;52.276;10.530;2023-06-04T07:09:24;1.47;;;1.37;;
11955;SDS011;6038;52.276;10.530;2023-06-04T07:11:50;2.63;;;1.47;;
11955;SDS011;6038;52.276;10.530;2023-06-04T07:14:16;3.27;;;1.23;;
11955;SDS011;6038;52.276;10.530;2023-06-04T07:16:42;2.00;;;1.50;;
11955;SDS011;6038;52.276;10.530;2023-06-04T07:19:08;2.97;;;1.60;;
11955;SDS011;6038;52.276;10.530;2023-06-04T07:21:34;3.47;;;1.57;;
11955;SDS011;6038;52.276;10.530;2023-06-04T07:24:00;2.40;;;1.23;;
11955;SDS011;6038;52.276;10.530;2023-06-04T07:26:26;4.07;;;1.80;;
11955;SDS011;6038;52.276;10.530;2023-06-04T07:28:55;2.57;;;1.63;;
11955;SDS011;6038;52.276;10.530;2023-06-04T07:31:22;1.93;;;1.43;;
11955;SDS011;6038;52.276;10.530;2023-06-04T07:33:48;1.80;;;1.33;;
11955;SDS011;6038;52.276;10.530;2023-06-04T07:36:14;2.43;;;1.60;;
11955;SDS011;6038;52.276;10.530;2023-06-04T07:38:41;1.70;;;1.43;;
11955;SDS011;6038;52.276;10.530;2023-06-04T07:41:07;3.77;;;1.50;;
11955;SDS011;6038;52.276;10.530;2023-06-04T07:43:34;2.13;;;1.50;;
11955;SDS011;6038;52.276;10.530;2023-06-04T07:46:00;4.17;;;1.40;;
11955;SDS011;6038;52.276;10.530;2023-06-04T07:48:26;2.13;;;1.37;;
11955;SDS011;6038;52.276;10.530;2023-06-04T07:50:56;2.27;;;1.60;;
11955;SDS011;6038;52.276;10.530;2023-06-04T07:53:22;1.85;;;1.42;;
11955;SDS011;6038;52.276;10.530;2023-06-04T07:55:48;3.45;;;1.98;;
11955;SDS011;6038;52.276;10.530;2023-06-04T07:58:14;3.47;;;1.90;;
11955;SDS011;6038;52.276;10.530;2023-06-04T08:00:40;2.70;;;1.92;;
11955;SDS011;6038;52.276;10.530;2023-06-04T08:03:06;1.80;;;1.57;;
11955;SDS011;6038;52.276;10.530;2023-06-04T08:05:32;2.20;;;1.50;;
11955;SDS011;6038;52.276;10.530;2023-06-04T08:07:59;1.58;;;1.48;;
11955;SDS011;6038;52.276;10.530;2023-06-04T08:10:26;2.42;;;1.40;;
11955;SDS011;6038;52.276;10.530;2023-06-04T08:12:52;1.40;;;1.30;;
11955;SDS011;6038;52.276;10.530;2023-06-04T08:15:18;4.65;;;1.35;;
11955;SDS011;6038;52.276;10.530;2023-06-04T08:17:44;2.08;;;1.52;;
11955;SDS011;6038;52.276;10.530;2023-06-04T08:20:10;2.75;;;1.85;;
11955;SDS011;6038;52.276;10.530;2023-06-04T08:22:36;2.70;;;1.65;;
11955;SDS011;6038;52.276;10.530;2023-06-04T08:25:02;2.30;;;1.50;;
11955;SDS011;6038;52.276;10.530;2023-06-04T08:27:31;1.60;;;1.40;;
11955;SDS011;6038;52.276;10.530;2023-06-04T08:29:57;2.90;;;1.30;;
11955;SDS011;6038;52.276;10.530;2023-06-04T08:32:23;2.92;;;1.20;;
11955;SDS011;6038;52.276;10.530;2023-06-04T08:34:49;2.50;;;1.42;;
11955;SDS011;6038;52.276;10.530;2023-06-04T08:37:16;2.63;;;1.35;;
11955;SDS011;6038;52.276;10.530;2023-06-04T08:39:43;3.38;;;1.40;;
11955;SDS011;6038;52.276;10.530;2023-06-04T08:44:50;1.30;;;1.10;;
11955;SDS011;6038;52.276;10.530;2023-06-04T08:47:19;1.88;;;1.40;;
11955;SDS011;6038;52.276;10.530;2023-06-04T08:49:48;2.03;;;1.30;;
11955;SDS011;6038;52.276;10.530;2023-06-04T08:52:15;2.05;;;1.25;;
11955;SDS011;6038;52.276;10.530;2023-06-04T08:54:41;2.00;;;1.15;;
11955;SDS011;6038;52.276;10.530;2023-06-04T08:57:08;3.60;;;1.42;;
11955;SDS011;6038;52.276;10.530;2023-06-04T08:59:35;3.42;;;1.83;;
11955;SDS011;6038;52.276;10.530;2023-06-04T09:02:01;1.73;;;1.40;;
11955;SDS011;6038;52.276;10.530;2023-06-04T09:04:28;1.50;;;1.20;;
11955;SDS011;6038;52.276;10.530;2023-06-04T09:06:54;1.85;;;1.35;;
11955;SDS011;6038;52.276;10.530;2023-06-04T09:09:21;2.28;;;1.70;;
11955;SDS011;6038;52.276;10.530;2023-06-04T09:14:14;2.03;;;1.30;;
11955;SDS011;6038;52.276;10.530;2023-06-04T09:16:51;1.42;;;1.13;;
11955;SDS011;6038;52.276;10.530;2023-06-04T09:19:18;1.70;;;1.27;;
11955;SDS011;6038;52.276;10.530;2023-06-04T09:21:51;1.33;;;0.85;;
11955;SDS011;6038;52.276;10.530;2023-06-04T09:24:20;3.08;;;1.40;;
11955;SDS011;6038;52.276;10.530;2023-06-04T09:26:46;1.75;;;1.20;;
11955;SDS011;6038;52.276;10.530;2023-06-04T09:29:12;1.83;;;1.48;;
11955;SDS011;6038;52.276;10.530;2023-06-04T09:31:39;3.17;;;1.42;;
11955;SDS011;6038;52.276;10.530;2023-06-04T09:34:05;3.00;;;1.30;;
11955;SDS011;6038;52.276;10.530;2023-06-04T09:36:35;1.70;;;1.20;;
11955;SDS011;6038;52.276;10.530;2023-06-04T09:39:02;1.30;;;1.20;;
11955;SDS011;6038;52.276;10.530;2023-06-04T09:41:29;1.35;;;1.20;;
11955;SDS011;6038;52.276;10.530;2023-06-04T09:44:01;1.33;;;1.10;;
11955;SDS011;6038;52.276;10.530;2023-06-04T09:46:28;2.83;;;1.30;;
11955;SDS011;6038;52.276;10.530;2023-06-04T09:49:00;2.70;;;1.35;;
11955;SDS011;6038;52.276;10.530;2023-06-04T09:51:27;2.55;;;1.30;;
11955;SDS011;6038;52.276;10.530;2023-06-04T09:54:02;8.40;;;1.27;;
11955;SDS011;6038;52.276;10.530;2023-06-04T09:56:29;4.97;;;1.35;;
11955;SDS011;6038;52.276;10.530;2023-06-04T09:58:57;4.82;;;1.35;;
11955;SDS011;6038;52.276;10.530;2023-06-04T10:01:25;2.25;;;1.20;;
11955;SDS011;6038;52.276;10.530;2023-06-04T10:03:52;1.75;;;1.30;;
11955;SDS011;6038;52.276;10.530;2023-06-04T10:06:19;1.92;;;1.60;;
11955;SDS011;6038;52.276;10.530;2023-06-04T10:08:49;5.22;;;1.10;;
11955;SDS011;6038;52.276;10.530;2023-06-04T10:11:17;2.67;;;1.20;;
11955;SDS011;6038;52.276;10.530;2023-06-04T10:13:56;4.10;;;1.25;;
11955;SDS011;6038;52.276;10.530;2023-06-04T10:16:25;2.38;;;1.08;;
11955;SDS011;6038;52.276;10.530;2023-06-04T10:18:54;2.08;;;1.60;;
11955;SDS011;6038;52.276;10.530;2023-06-04T10:21:21;1.95;;;1.50;;
11955;SDS011;6038;52.276;10.530;2023-06-04T10:23:48;2.30;;;1.20;;
11955;SDS011;6038;52.276;10.530;2023-06-04T10:26:15;1.73;;;1.27;;
11955;SDS011;6038;52.276;10.530;2023-06-04T10:28:42;2.28;;;1.17;;
11955;SDS011;6038;52.276;10.530;2023-06-04T10:31:11;2.33;;;1.23;;
11955;SDS011;6038;52.276;10.530;2023-06-04T10:33:38;1.45;;;1.20;;
11955;SDS011;6038;52.276;10.530;2023-06-04T10:36:25;1.88;;;1.25;;
11955;SDS011;6038;52.276;10.530;2023-06-04T10:38:51;1.70;;;1.30;;
11955;SDS011;6038;52.276;10.530;2023-06-04T10:41:18;1.50;;;1.20;;
11955;SDS011;6038;52.276;10.530;2023-06-04T10:43:46;2.92;;;1.83;;
11955;SDS011;6038;52.276;10.530;2023-06-04T10:46:15;1.90;;;1.35;;
11955;SDS011;6038;52.276;10.530;2023-06-04T10:48:50;1.33;;;1.17;;
11955;SDS011;6038;52.276;10.530;2023-06-04T10:51:28;3.92;;;1.35;;
11955;SDS011;6038;52.276;10.530;2023-06-04T10:53:56;1.70;;;1.48;;
11955;SDS011;6038;52.276;10.530;2023-06-04T10:56:25;1.35;;;1.10;;
11955;SDS011;6038;52.276;10.530;2023-06-04T10:58:52;2.88;;;1.50;;
11955;SDS011;6038;52.276;10.530;2023-06-04T11:01:25;3.10;;;1.38;;
11955;SDS011;6038;52.276;10.530;2023-06-04T11:03:51;2.63;;;1.35;;
11955;SDS011;6038;52.276;10.530;2023-06-04T11:06:17;1.73;;;1.38;;
11955;SDS011;6038;52.276;10.530;2023-06-04T11:08:43;1.35;;;1.23;;
11955;SDS011;6038;52.276;10.530;2023-06-04T11:11:10;1.52;;;1.42;;
11955;SDS011;6038;52.276;10.530;2023-06-04T11:13:37;1.95;;;1.42;;
11955;SDS011;6038;52.276;10.530;2023-06-04T11:16:03;1.90;;;1.17;;
11955;SDS011;6038;52.276;10.530;2023-06-04T11:18:40;2.30;;;1.40;;
11955;SDS011;6038;52.276;10.530;2023-06-04T11:21:06;2.33;;;1.45;;
11955;SDS011;6038;52.276;10.530;2023-06-04T11:23:32;2.25;;;1.33;;
11955;SDS011;6038;52.276;10.530;2023-06-04T11:25:58;1.48;;;1.38;;
11955;SDS011;6038;52.276;10.530;2023-06-04T11:28:25;2.08;;;1.40;;
11955;SDS011;6038;52.276;10.530;2023-06-04T11:30:57;2.67;;;1.65;;
11955;SDS011;6038;52.276;10.530;2023-06-04T11:33:23;1.58;;;1.40;;
11955;SDS011;6038;52.276;10.530;2023-06-04T11:35:49;2.20;;;1.40;;
11955;SDS011;6038;52.276;10.530;2023-06-04T11:38:15;2.63;;;1.60;;
11955;SDS011;6038;52.276;10.530;2023-06-04T11:40:41;1.77;;;1.42;;
11955;SDS011;6038;52.276;10.530;2023-06-04T11:43:10;1.73;;;1.20;;
11955;SDS011;6038;52.276;10.530;2023-06-04T11:45:36;4.03;;;1.80;;
11955;SDS011;6038;52.276;10.530;2023-06-04T11:48:03;6.57;;;1.95;;
11955;SDS011;6038;52.276;10.530;2023-06-04T11:50:29;12.43;;;2.83;;
11955;SDS011;6038;52.276;10.530;2023-06-04T11:52:55;11.07;;;2.63;;
11955;SDS011;6038;52.276;10.530;2023-06-04T11:55:21;26.42;;;4.75;;
11955;SDS011;6038;52.276;10.530;2023-06-04T11:57:48;66.32;;;8.68;;
11955;SDS011;6038;52.276;10.530;2023-06-04T12:00:14;86.13;;;11.00;;
11955;SDS011;6038;52.276;10.530;2023-06-04T12:02:53;60.88;;;8.73;;
11955;SDS011;6038;52.276;10.530;2023-06-04T12:05:21;71.05;;;10.13;;
11955;SDS011;6038;52.276;10.530;2023-06-04T12:07:50;70.20;;;10.18;;
11955;SDS011;6038;52.276;10.530;2023-06-04T12:10:20;67.82;;;9.93;;
11955;SDS011;6038;52.276;10.530;2023-06-04T12:12:46;95.68;;;12.35;;
11955;SDS011;6038;52.276;10.530;2023-06-04T12:15:18;98.25;;;13.05;;
11955;SDS011;6038;52.276;10.530;2023-06-04T12:17:51;92.13;;;12.13;;
11955;SDS011;6038;52.276;10.530;2023-06-04T12:20:18;99.80;;;13.38;;
11955;SDS011;6038;52.276;10.530;2023-06-04T12:22:44;87.00;;;12.20;;
11955;SDS011;6038;52.276;10.530;2023-06-04T12:25:11;116.85;;;15.43;;
11955;SDS011;6038;52.276;10.530;2023-06-04T12:27:46;105.50;;;13.95;;
11955;SDS011;6038;52.276;10.530;2023-06-04T12:30:13;116.72;;;14.32;;
11955;SDS011;6038;52.276;10.530;2023-06-04T12:32:40;136.00;;;16.67;;
11955;SDS011;6038;52.276;10.530;2023-06-04T12:35:10;124.72;;;15.43;;
11955;SDS011;6038;52.276;10.530;2023-06-04T12:37:36;143.80;;;19.05;;
11955;SDS011;6038;52.276;10.530;2023-06-04T12:40:02;140.02;;;17.30;;
11955;SDS011;6038;52.276;10.530;2023-06-04T12:42:32;138.25;;;18.13;;
11955;SDS011;6038;52.276;10.530;2023-06-04T12:44:58;154.48;;;19.45;;
11955;SDS011;6038;52.276;10.530;2023-06-04T12:47:24;147.27;;;18.90;;
11955;SDS011;6038;52.276;10.530;2023-06-04T12:49:50;168.15;;;19.95;;
11955;SDS011;6038;52.276;10.530;2023-06-04T12:52:17;134.55;;;16.85;;
11955;SDS011;6038;52.276;10.530;2023-06-04T12:54:43;134.20;;;17.85;;
11955;SDS011;6038;52.276;10.530;2023-06-04T12:57:10;145.10;;;18.40;;
11955;SDS011;6038;52.276;10.530;2023-06-04T12:59:36;171.82;;;21.33;;
11955;SDS011;6038;52.276;10.530;2023-06-04T13:02:02;151.70;;;19.20;;
11955;SDS011;6038;52.276;10.530;2023-06-04T13:04:28;162.73;;;20.45;;
11955;SDS011;6038;52.276;10.530;2023-06-04T13:06:54;157.15;;;19.08;;
11955;SDS011;6038;52.276;10.530;2023-06-04T13:09:24;164.95;;;19.70;;
11955;SDS011;6038;52.276;10.530;2023-06-04T13:11:50;183.27;;;22.15;;
11955;SDS011;6038;52.276;10.530;2023-06-04T13:14:16;164.45;;;20.55;;
11955;SDS011;6038;52.276;10.530;2023-06-04T13:16:42;173.68;;;21.38;;
11955;SDS011;6038;52.276;10.530;2023-06-04T13:19:10;174.50;;;21.35;;
11955;SDS011;6038;52.276;10.530;2023-06-04T13:21:37;166.02;;;21.27;;
11955;SDS011;6038;52.276;10.530;2023-06-04T13:24:03;170.95;;;21.88;;
11955;SDS011;6038;52.276;10.530;2023-06-04T13:26:29;159.75;;;19.85;;
11955;SDS011;6038;52.276;10.530;2023-06-04T13:28:55;167.30;;;20.88;;
11955;SDS011;6038;52.276;10.530;2023-06-04T13:31:21;160.48;;;19.50;;
11955;SDS011;6038;52.276;10.530;2023-06-04T13:33:47;166.77;;;20.20;;
11955;SDS011;6038;52.276;10.530;2023-06-04T13:36:13;168.57;;;21.35;;
11955;SDS011;6038;52.276;10.530;2023-06-04T13:38:39;176.43;;;21.00;;
11955;SDS011;6038;52.276;10.530;2023-06-04T13:41:08;164.63;;;20.08;;
11955;SDS011;6038;52.276;10.530;2023-06-04T13:43:34;157.60;;;20.58;;
11955;SDS011;6038;52.276;10.530;2023-06-04T13:46:00;165.77;;;20.50;;
11955;SDS011;6038;52.276;10.530;2023-06-04T13:48:27;170.57;;;20.58;;
11955;SDS011;6038;52.276;10.530;2023-06-04T13:50:53;164.77;;;20.80;;
11955;SDS011;6038;52.276;10.530;2023-06-04T13:53:19;188.95;;;22.50;;
11955;SDS011;6038;52.276;10.530;2023-06-04T13:55:45;157.35;;;19.65;;
11955;SDS011;6038;52.276;10.530;2023-06-04T13:58:11;157.35;;;19.65;;
11955;SDS011;6038;52.276;10.530;2023-06-04T14:00:39;159.65;;;19.95;;
11955;SDS011;6038;52.276;10.530;2023-06-04T14:03:05;162.75;;;19.30;;
11955;SDS011;6038;52.276;10.530;2023-06-04T14:05:31;168.25;;;21.50;;
11955;SDS011;6038;52.276;10.530;2023-06-04T14:07:57;164.13;;;20.08;;
11955;SDS011;6038;52.276;10.530;2023-06-04T14:10:23;148.52;;;18.65;;
11955;SDS011;6038;52.276;10.530;2023-06-04T14:12:49;163.52;;;21.42;;
11955;SDS011;6038;52.276;10.530;2023-06-04T14:15:16;163.27;;;20.40;;
11955;SDS011;6038;52.276;10.530;2023-06-04T14:17:43;158.82;;;20.05;;
11955;SDS011;6038;52.276;10.530;2023-06-04T14:20:09;168.48;;;21.27;;
11955;SDS011;6038;52.276;10.530;2023-06-04T14:22:36;169.57;;;21.45;;
11955;SDS011;6038;52.276;10.530;2023-06-04T14:25:05;160.55;;;21.20;;
11955;SDS011;6038;52.276;10.530;2023-06-04T14:27:32;155.80;;;19.58;;
11955;SDS011;6038;52.276;10.530;2023-06-04T14:29:58;145.00;;;19.70;;
11955;SDS011;6038;52.276;10.530;2023-06-04T14:32:24;157.50;;;20.30;;
11955;SDS011;6038;52.276;10.530;2023-06-04T14:34:50;143.65;;;18.88;;
11955;SDS011;6038;52.276;10.530;2023-06-04T14:37:16;163.30;;;20.65;;
11955;SDS011;6038;52.276;10.530;2023-06-04T14:39:44;146.00;;;19.05;;
11955;SDS011;6038;52.276;10.530;2023-06-04T14:42:11;160.55;;;19.90;;
11955;SDS011;6038;52.276;10.530;2023-06-04T14:44:37;150.70;;;20.20;;
11955;SDS011;6038;52.276;10.530;2023-06-04T14:47:03;141.98;;;18.33;;
11955;SDS011;6038;52.276;10.530;2023-06-04T14:49:29;134.00;;;18.45;;
11955;SDS011;6038;52.276;10.530;2023-06-04T14:51:55;116.22;;;16.15;;